sensor_id;sensor_type;location;lat;lon;timestamp;pressure;altitude;pressure_sealevel;temperature;humidity
18678;BME280;9469;51.114;13.914;2023-04-07T00:04:05;99034.88;;;1.69;94.70
18678;BME280;9469;51.114;13.914;2023-04-07T00:09:14;99024.69;;;1.72;93.53
18678;BME280;9469;51.114;13.914;2023-04-07T00:14:21;99028.81;;;1.96;92.33
18678;BME280;9469;51.114;13.914;2023-04-07T00:19:27;99020.47;;;1.99;91.84
18678;BME280;9469;51.114;13.914;2023-04-07T00:24:38;99019.03;;;1.64;92.82
18678;BME280;9469;51.114;13.914;2023-04-07T00:29:45;99016.31;;;1.87;92.22
18678;BME280;9469;51.114;13.914;2023-04-07T00:34:51;99009.56;;;1.91;91.29
18678;BME280;9469;51.114;13.914;2023-04-07T00:40:00;99012.75;;;1.93;91.40
18678;BME280;9469;51.114;13.914;2023-04-07T00:45:08;99007.94;;;1.73;93.08
18678;BME280;9469;51.114;13.914;2023-04-07T00:50:17;99005.22;;;1.68;92.62
18678;BME280;9469;51.114;13.914;2023-04-07T00:55:27;98999.84;;;1.75;91.94
18678;BME280;9469;51.114;13.914;2023-04-07T01:00:37;99000.69;;;1.64;92.99
18678;BME280;9469;51.114;13.914;2023-04-07T01:05:51;98986.66;;;1.41;92.81
18678;BME280;9469;51.114;13.914;2023-04-07T01:11:07;98982.88;;;1.49;93.61
18678;BME280;9469;51.114;13.914;2023-04-07T01:16:22;98977.63;;;1.49;94.54
18678;BME280;9469;51.114;13.914;2023-04-07T01:21:33;98973.00;;;1.56;95.11
18678;BME280;9469;51.114;13.914;2023-04-07T01:26:42;98966.34;;;1.65;94.84
18678;BME280;9469;51.114;13.914;2023-04-07T01:31:55;98963.31;;;1.40;96.02
18678;BME280;9469;51.114;13.914;2023-04-07T01:37:04;98947.56;;;1.12;96.91
18678;BME280;9469;51.114;13.914;2023-04-07T01:42:13;98956.97;;;0.85;98.45
18678;BME280;9469;51.114;13.914;2023-04-07T01:47:23;98960.41;;;0.85;98.30
18678;BME280;9469;51.114;13.914;2023-04-07T01:52:34;98959.84;;;0.83;99.49
18678;BME280;9469;51.114;13.914;2023-04-07T01:57:40;98952.56;;;1.13;98.47
18678;BME280;9469;51.114;13.914;2023-04-07T02:02:57;98966.41;;;0.97;98.80
18678;BME280;9469;51.114;13.914;2023-04-07T02:08:07;98965.59;;;0.97;99.20
18678;BME280;9469;51.114;13.914;2023-04-07T02:13:21;98958.16;;;1.17;97.12
18678;BME280;9469;51.114;13.914;2023-04-07T02:18:32;98944.66;;;0.97;96.96
18678;BME280;9469;51.114;13.914;2023-04-07T02:23:39;98950.25;;;0.89;97.06
18678;BME280;9469;51.114;13.914;2023-04-07T02:28:45;98950.75;;;0.62;97.46
18678;BME280;9469;51.114;13.914;2023-04-07T02:33:54;98948.19;;;0.91;98.25
18678;BME280;9469;51.114;13.914;2023-04-07T02:39:01;98943.47;;;1.04;97.69
18678;BME280;9469;51.114;13.914;2023-04-07T02:44:09;98945.09;;;1.05;98.75
18678;BME280;9469;51.114;13.914;2023-04-07T02:49:20;98944.13;;;0.83;99.40
18678;BME280;9469;51.114;13.914;2023-04-07T02:54:26;98938.94;;;0.48;100.00
18678;BME280;9469;51.114;13.914;2023-04-07T02:59:37;98922.78;;;0.51;100.00
18678;BME280;9469;51.114;13.914;2023-04-07T03:04:49;98925.84;;;1.00;98.87
18678;BME280;9469;51.114;13.914;2023-04-07T03:09:59;98922.81;;;0.80;98.75
18678;BME280;9469;51.114;13.914;2023-04-07T03:15:07;98915.16;;;1.01;98.37
18678;BME280;9469;51.114;13.914;2023-04-07T03:20:23;98914.28;;;0.72;98.90
18678;BME280;9469;51.114;13.914;2023-04-07T03:25:35;98889.72;;;0.73;98.25
18678;BME280;9469;51.114;13.914;2023-04-07T03:30:41;98903.63;;;1.02;97.08
18678;BME280;9469;51.114;13.914;2023-04-07T03:35:52;98913.84;;;0.76;98.52
18678;BME280;9469;51.114;13.914;2023-04-07T03:40:59;98907.66;;;0.82;98.48
18678;BME280;9469;51.114;13.914;2023-04-07T03:46:05;98905.09;;;1.10;98.08
18678;BME280;9469;51.114;13.914;2023-04-07T03:51:16;98906.03;;;1.04;98.51
18678;BME280;9469;51.114;13.914;2023-04-07T03:56:27;98905.75;;;1.17;98.25
18678;BME280;9469;51.114;13.914;2023-04-07T04:01:33;98898.34;;;1.14;97.40
18678;BME280;9469;51.114;13.914;2023-04-07T04:06:50;98906.09;;;0.81;98.37
18678;BME280;9469;51.114;13.914;2023-04-07T04:12:17;98909.31;;;0.59;99.61
18678;BME280;9469;51.114;13.914;2023-04-07T04:17:35;98918.28;;;0.75;99.49
18678;BME280;9469;51.114;13.914;2023-04-07T04:22:51;98909.41;;;0.76;99.10
18678;BME280;9469;51.114;13.914;2023-04-07T04:27:58;98923.88;;;0.79;99.35
18678;BME280;9469;51.114;13.914;2023-04-07T04:33:05;98918.00;;;0.48;100.00
18678;BME280;9469;51.114;13.914;2023-04-07T04:38:21;98911.91;;;0.71;100.00
18678;BME280;9469;51.114;13.914;2023-04-07T04:43:33;98913.91;;;0.92;99.31
18678;BME280;9469;51.114;13.914;2023-04-07T04:48:48;98910.59;;;0.97;98.99
18678;BME280;9469;51.114;13.914;2023-04-07T04:53:59;98908.19;;;0.95;98.69
18678;BME280;9469;51.114;13.914;2023-04-07T04:59:08;98912.09;;;1.21;96.50
18678;BME280;9469;51.114;13.914;2023-04-07T05:04:26;98915.38;;;1.28;96.14
18678;BME280;9469;51.114;13.914;2023-04-07T05:09:46;98909.41;;;1.04;96.05
18678;BME280;9469;51.114;13.914;2023-04-07T05:14:53;98909.03;;;1.40;95.28
18678;BME280;9469;51.114;13.914;2023-04-07T05:19:58;98902.72;;;1.53;94.09
18678;BME280;9469;51.114;13.914;2023-04-07T05:25:17;98905.00;;;1.33;96.29
18678;BME280;9469;51.114;13.914;2023-04-07T05:30:28;98907.56;;;1.61;94.74
18678;BME280;9469;51.114;13.914;2023-04-07T05:35:38;98901.53;;;1.77;93.90
18678;BME280;9469;51.114;13.914;2023-04-07T05:40:46;98904.38;;;1.92;92.55
18678;BME280;9469;51.114;13.914;2023-04-07T05:46:07;98898.31;;;2.42;91.12
18678;BME280;9469;51.114;13.914;2023-04-07T05:51:22;98910.16;;;2.66;89.35
18678;BME280;9469;51.114;13.914;2023-04-07T05:56:32;98902.66;;;3.49;85.70
18678;BME280;9469;51.114;13.914;2023-04-07T06:01:37;98900.38;;;3.90;83.51
18678;BME280;9469;51.114;13.914;2023-04-07T06:06:46;98915.53;;;4.51;80.26
18678;BME280;9469;51.114;13.914;2023-04-07T06:11:56;98907.56;;;4.98;78.69
18678;BME280;9469;51.114;13.914;2023-04-07T06:17:03;98912.22;;;6.13;72.97
18678;BME280;9469;51.114;13.914;2023-04-07T06:22:10;98893.03;;;8.03;67.22
18678;BME280;9469;51.114;13.914;2023-04-07T06:27:20;98891.16;;;7.36;68.24
18678;BME280;9469;51.114;13.914;2023-04-07T06:32:27;98904.25;;;6.33;73.17
18678;BME280;9469;51.114;13.914;2023-04-07T06:37:33;98885.41;;;7.24;71.02
18678;BME280;9469;51.114;13.914;2023-04-07T06:42:41;98880.66;;;9.35;64.73
18678;BME280;9469;51.114;13.914;2023-04-07T06:48:00;98886.13;;;10.81;58.57
18678;BME280;9469;51.114;13.914;2023-04-07T06:53:06;98870.81;;;12.95;55.96
18678;BME280;9469;51.114;13.914;2023-04-07T06:58:17;98866.00;;;14.46;52.72
18678;BME280;9469;51.114;13.914;2023-04-07T07:03:25;98876.97;;;11.73;57.00
18678;BME280;9469;51.114;13.914;2023-04-07T07:08:30;98888.00;;;10.40;60.02
18678;BME280;9469;51.114;13.914;2023-04-07T07:13:40;98883.47;;;9.44;62.39
18678;BME280;9469;51.114;13.914;2023-04-07T07:18:56;98866.25;;;11.86;59.31
18678;BME280;9469;51.114;13.914;2023-04-07T07:24:01;98861.06;;;15.36;50.86
18678;BME280;9469;51.114;13.914;2023-04-07T07:29:12;98869.78;;;14.45;50.16
18678;BME280;9469;51.114;13.914;2023-04-07T07:34:17;98866.53;;;16.13;47.38
18678;BME280;9469;51.114;13.914;2023-04-07T07:39:24;98893.53;;;11.47;51.66
18678;BME280;9469;51.114;13.914;2023-04-07T07:44:32;98907.91;;;10.43;54.21
18678;BME280;9469;51.114;13.914;2023-04-07T07:49:42;98894.44;;;10.66;54.43
18678;BME280;9469;51.114;13.914;2023-04-07T07:54:47;98907.06;;;9.08;55.73
18678;BME280;9469;51.114;13.914;2023-04-07T07:59:56;98906.91;;;9.37;56.38
18678;BME280;9469;51.114;13.914;2023-04-07T08:05:01;98915.63;;;8.53;58.48
18678;BME280;9469;51.114;13.914;2023-04-07T08:10:07;98914.75;;;8.62;58.54
18678;BME280;9469;51.114;13.914;2023-04-07T08:15:20;98916.50;;;8.72;59.31
18678;BME280;9469;51.114;13.914;2023-04-07T08:20:25;98920.72;;;8.49;59.78
18678;BME280;9469;51.114;13.914;2023-04-07T08:25:32;98924.78;;;8.42;60.47
18678;BME280;9469;51.114;13.914;2023-04-07T08:30:39;98922.28;;;8.22;60.90
18678;BME280;9469;51.114;13.914;2023-04-07T08:35:47;98922.38;;;8.45;59.85
18678;BME280;9469;51.114;13.914;2023-04-07T08:40:57;98926.22;;;8.29;60.26
18678;BME280;9469;51.114;13.914;2023-04-07T08:46:12;98927.16;;;8.67;60.60
18678;BME280;9469;51.114;13.914;2023-04-07T08:51:25;98922.63;;;8.91;60.37
18678;BME280;9469;51.114;13.914;2023-04-07T08:56:32;98923.31;;;8.78;59.53
18678;BME280;9469;51.114;13.914;2023-04-07T09:01:40;98919.50;;;9.31;58.87
18678;BME280;9469;51.114;13.914;2023-04-07T09:06:49;98918.53;;;9.60;58.04
18678;BME280;9469;51.114;13.914;2023-04-07T09:11:59;98917.81;;;9.73;57.54
18678;BME280;9469;51.114;13.914;2023-04-07T09:17:06;98907.66;;;9.43;55.72
18678;BME280;9469;51.114;13.914;2023-04-07T09:22:14;98915.09;;;10.42;53.80
18678;BME280;9469;51.114;13.914;2023-04-07T09:27:37;98929.22;;;9.73;54.55
18678;BME280;9469;51.114;13.914;2023-04-07T09:32:45;98925.38;;;9.47;54.96
18678;BME280;9469;51.114;13.914;2023-04-07T09:38:09;98903.19;;;9.57;55.85
18678;BME280;9469;51.114;13.914;2023-04-07T09:43:15;98910.66;;;10.24;54.21
18678;BME280;9469;51.114;13.914;2023-04-07T09:48:25;98896.28;;;9.74;55.19
18678;BME280;9469;51.114;13.914;2023-04-07T09:53:40;98893.88;;;9.91;53.55
18678;BME280;9469;51.114;13.914;2023-04-07T09:58:49;98891.28;;;10.51;54.29
18678;BME280;9469;51.114;13.914;2023-04-07T10:03:59;98883.69;;;10.58;53.34
18678;BME280;9469;51.114;13.914;2023-04-07T10:09:06;98896.16;;;10.30;53.06
18678;BME280;9469;51.114;13.914;2023-04-07T10:14:11;98909.56;;;10.06;53.70
18678;BME280;9469;51.114;13.914;2023-04-07T10:19:24;98905.97;;;9.28;54.34
18678;BME280;9469;51.114;13.914;2023-04-07T10:24:40;98904.13;;;9.47;53.82
18678;BME280;9469;51.114;13.914;2023-04-07T10:29:50;98893.19;;;10.18;54.43
18678;BME280;9469;51.114;13.914;2023-04-07T10:34:59;98896.97;;;10.44;53.95
18678;BME280;9469;51.114;13.914;2023-04-07T10:40:28;98903.28;;;10.48;54.90
18678;BME280;9469;51.114;13.914;2023-04-07T10:45:51;98901.47;;;10.17;54.33
18678;BME280;9469;51.114;13.914;2023-04-07T10:51:15;98897.06;;;9.75;56.00
18678;BME280;9469;51.114;13.914;2023-04-07T10:56:21;98900.13;;;9.50;54.82
18678;BME280;9469;51.114;13.914;2023-04-07T11:01:28;98900.94;;;9.64;54.49
18678;BME280;9469;51.114;13.914;2023-04-07T11:06:45;98904.50;;;9.91;54.96
18678;BME280;9469;51.114;13.914;2023-04-07T11:11:55;98895.50;;;10.06;54.07
18678;BME280;9469;51.114;13.914;2023-04-07T11:17:04;98889.78;;;9.99;54.52
18678;BME280;9469;51.114;13.914;2023-04-07T11:22:16;98887.28;;;10.21;55.06
18678;BME280;9469;51.114;13.914;2023-04-07T11:27:24;98888.28;;;10.39;56.05
18678;BME280;9469;51.114;13.914;2023-04-07T11:32:29;98888.97;;;10.17;56.71
18678;BME280;9469;51.114;13.914;2023-04-07T11:37:38;98894.03;;;10.73;55.85
18678;BME280;9469;51.114;13.914;2023-04-07T11:42:43;98883.94;;;10.29;55.96
18678;BME280;9469;51.114;13.914;2023-04-07T11:47:48;98881.88;;;11.21;56.39
18678;BME280;9469;51.114;13.914;2023-04-07T11:52:58;98889.41;;;10.51;54.50
18678;BME280;9469;51.114;13.914;2023-04-07T11:58:05;98895.09;;;9.99;55.18
18678;BME280;9469;51.114;13.914;2023-04-07T12:03:15;98892.53;;;10.07;54.98
18678;BME280;9469;51.114;13.914;2023-04-07T12:08:35;98890.16;;;10.52;53.60
18678;BME280;9469;51.114;13.914;2023-04-07T12:13:42;98886.00;;;10.19;54.77
18678;BME280;9469;51.114;13.914;2023-04-07T12:18:48;98890.09;;;10.57;54.71
18678;BME280;9469;51.114;13.914;2023-04-07T12:23:56;98882.56;;;11.13;53.85
18678;BME280;9469;51.114;13.914;2023-04-07T12:29:01;98881.56;;;11.23;54.82
18678;BME280;9469;51.114;13.914;2023-04-07T12:34:08;98876.59;;;10.53;56.73
18678;BME280;9469;51.114;13.914;2023-04-07T12:39:16;98874.53;;;10.50;56.46
18678;BME280;9469;51.114;13.914;2023-04-07T12:44:22;98880.13;;;10.90;56.07
18678;BME280;9469;51.114;13.914;2023-04-07T12:49:30;98874.75;;;11.30;55.70
18678;BME280;9469;51.114;13.914;2023-04-07T12:54:37;98890.75;;;10.22;57.90
18678;BME280;9469;51.114;13.914;2023-04-07T12:59:49;98887.50;;;10.93;57.87
18678;BME280;9469;51.114;13.914;2023-04-07T13:04:57;98875.00;;;10.79;58.91
18678;BME280;9469;51.114;13.914;2023-04-07T13:10:06;98873.81;;;10.45;60.01
18678;BME280;9469;51.114;13.914;2023-04-07T13:15:12;98878.41;;;10.12;59.83
18678;BME280;9469;51.114;13.914;2023-04-07T13:20:20;98875.31;;;10.64;58.57
18678;BME280;9469;51.114;13.914;2023-04-07T13:25:31;98877.38;;;10.54;57.45
18678;BME280;9469;51.114;13.914;2023-04-07T13:30:38;98884.75;;;10.43;56.62
18678;BME280;9469;51.114;13.914;2023-04-07T13:35:43;98887.00;;;10.23;56.68
18678;BME280;9469;51.114;13.914;2023-04-07T13:40:51;98880.03;;;10.67;55.20
18678;BME280;9469;51.114;13.914;2023-04-07T13:46:00;98870.97;;;10.82;55.51
18678;BME280;9469;51.114;13.914;2023-04-07T13:51:12;98876.09;;;10.38;55.61
18678;BME280;9469;51.114;13.914;2023-04-07T13:56:20;98865.94;;;10.26;56.05
18678;BME280;9469;51.114;13.914;2023-04-07T14:01:26;98869.91;;;10.10;56.68
18678;BME280;9469;51.114;13.914;2023-04-07T14:06:31;98868.75;;;10.16;57.01
18678;BME280;9469;51.114;13.914;2023-04-07T14:11:41;98876.09;;;10.05;57.47
18678;BME280;9469;51.114;13.914;2023-04-07T14:16:48;98862.09;;;10.73;56.67
18678;BME280;9469;51.114;13.914;2023-04-07T14:21:56;98853.63;;;10.44;57.61
18678;BME280;9469;51.114;13.914;2023-04-07T14:27:04;98853.63;;;10.44;57.69
18678;BME280;9469;51.114;13.914;2023-04-07T14:32:09;98852.81;;;10.16;58.02
18678;BME280;9469;51.114;13.914;2023-04-07T14:37:14;98857.16;;;10.12;58.89
18678;BME280;9469;51.114;13.914;2023-04-07T14:42:26;98854.94;;;10.00;58.28
18678;BME280;9469;51.114;13.914;2023-04-07T14:47:32;98858.22;;;10.11;59.02
18678;BME280;9469;51.114;13.914;2023-04-07T14:52:39;98857.50;;;10.05;58.64
18678;BME280;9469;51.114;13.914;2023-04-07T14:57:48;98865.31;;;9.32;59.21
18678;BME280;9469;51.114;13.914;2023-04-07T15:02:57;98873.44;;;9.22;59.07
18678;BME280;9469;51.114;13.914;2023-04-07T15:08:02;98866.47;;;9.26;59.77
18678;BME280;9469;51.114;13.914;2023-04-07T15:13:10;98861.94;;;9.08;60.20
18678;BME280;9469;51.114;13.914;2023-04-07T15:18:15;98864.88;;;9.25;60.48
18678;BME280;9469;51.114;13.914;2023-04-07T15:23:21;98863.66;;;9.36;60.70
18678;BME280;9469;51.114;13.914;2023-04-07T15:28:28;98873.13;;;8.63;65.44
18678;BME280;9469;51.114;13.914;2023-04-07T15:33:35;98874.41;;;8.65;66.84
18678;BME280;9469;51.114;13.914;2023-04-07T15:38:41;98871.53;;;8.62;67.16
18678;BME280;9469;51.114;13.914;2023-04-07T15:43:49;98882.25;;;8.52;67.65
18678;BME280;9469;51.114;13.914;2023-04-07T15:48:54;98874.22;;;8.33;68.41
18678;BME280;9469;51.114;13.914;2023-04-07T15:53:59;98880.09;;;8.30;67.66
18678;BME280;9469;51.114;13.914;2023-04-07T15:59:07;98876.03;;;8.38;67.86
18678;BME280;9469;51.114;13.914;2023-04-07T16:04:13;98879.91;;;7.93;68.05
18678;BME280;9469;51.114;13.914;2023-04-07T16:09:20;98887.31;;;7.91;67.22
18678;BME280;9469;51.114;13.914;2023-04-07T16:14:27;98893.00;;;8.08;66.22
18678;BME280;9469;51.114;13.914;2023-04-07T16:19:33;98892.34;;;8.21;65.47
18678;BME280;9469;51.114;13.914;2023-04-07T16:24:38;98899.38;;;8.07;66.36
18678;BME280;9469;51.114;13.914;2023-04-07T16:29:45;98905.75;;;7.72;68.57
18678;BME280;9469;51.114;13.914;2023-04-07T16:34:51;98903.41;;;7.66;69.96
18678;BME280;9469;51.114;13.914;2023-04-07T16:39:56;98915.94;;;7.89;70.47
18678;BME280;9469;51.114;13.914;2023-04-07T16:45:05;98920.19;;;7.85;71.96
18678;BME280;9469;51.114;13.914;2023-04-07T16:50:11;98924.94;;;7.54;74.50
18678;BME280;9469;51.114;13.914;2023-04-07T16:55:17;98921.78;;;7.52;75.97
18678;BME280;9469;51.114;13.914;2023-04-07T17:00:24;98929.59;;;7.67;76.63
18678;BME280;9469;51.114;13.914;2023-04-07T17:05:29;98934.50;;;7.45;77.59
18678;BME280;9469;51.114;13.914;2023-04-07T17:10:34;98930.28;;;7.44;78.17
18678;BME280;9469;51.114;13.914;2023-04-07T17:15:44;98946.81;;;7.21;79.92
18678;BME280;9469;51.114;13.914;2023-04-07T17:20:49;98951.56;;;7.24;80.78
18678;BME280;9469;51.114;13.914;2023-04-07T17:25:54;98962.19;;;7.14;82.20
18678;BME280;9469;51.114;13.914;2023-04-07T17:31:07;98965.22;;;6.82;83.97
18678;BME280;9469;51.114;13.914;2023-04-07T17:36:12;98971.88;;;6.65;86.41
18678;BME280;9469;51.114;13.914;2023-04-07T17:41:18;98978.75;;;6.56;87.67
18678;BME280;9469;51.114;13.914;2023-04-07T17:46:26;98979.28;;;6.58;89.15
18678;BME280;9469;51.114;13.914;2023-04-07T17:51:32;98979.28;;;6.47;90.68
18678;BME280;9469;51.114;13.914;2023-04-07T17:56:37;98981.94;;;6.22;92.34
18678;BME280;9469;51.114;13.914;2023-04-07T18:01:48;98995.66;;;6.04;93.86
18678;BME280;9469;51.114;13.914;2023-04-07T18:06:53;99002.03;;;6.48;93.59
18678;BME280;9469;51.114;13.914;2023-04-07T18:11:59;99009.44;;;6.36;95.40
18678;BME280;9469;51.114;13.914;2023-04-07T18:17:09;99002.00;;;6.64;96.05
18678;BME280;9469;51.114;13.914;2023-04-07T18:22:14;99006.47;;;6.58;97.01
18678;BME280;9469;51.114;13.914;2023-04-07T18:27:20;99021.06;;;6.35;99.98
18678;BME280;9469;51.114;13.914;2023-04-07T18:32:29;99031.38;;;6.42;100.00
18678;BME280;9469;51.114;13.914;2023-04-07T18:37:36;99030.56;;;6.31;100.00
18678;BME280;9469;51.114;13.914;2023-04-07T18:42:44;99031.34;;;6.37;100.00
18678;BME280;9469;51.114;13.914;2023-04-07T18:47:52;99032.66;;;6.29;100.00
18678;BME280;9469;51.114;13.914;2023-04-07T18:52:58;99046.66;;;6.10;100.00
18678;BME280;9469;51.114;13.914;2023-04-07T18:58:03;99050.63;;;6.12;100.00
18678;BME280;9469;51.114;13.914;2023-04-07T19:03:14;99044.56;;;6.12;100.00
18678;BME280;9469;51.114;13.914;2023-04-07T19:08:20;99052.22;;;6.18;100.00
18678;BME280;9469;51.114;13.914;2023-04-07T19:13:27;99056.94;;;5.96;100.00
18678;BME280;9469;51.114;13.914;2023-04-07T19:18:35;99053.47;;;5.91;100.00
18678;BME280;9469;51.114;13.914;2023-04-07T19:23:42;99054.59;;;6.15;100.00
18678;BME280;9469;51.114;13.914;2023-04-07T19:28:48;99056.47;;;6.55;100.00
18678;BME280;9469;51.114;13.914;2023-04-07T19:33:56;99056.19;;;6.46;100.00
18678;BME280;9469;51.114;13.914;2023-04-07T19:39:04;99064.34;;;6.09;100.00
18678;BME280;9469;51.114;13.914;2023-04-07T19:44:09;99064.88;;;5.96;100.00
18678;BME280;9469;51.114;13.914;2023-04-07T19:49:17;99062.72;;;5.88;100.00
18678;BME280;9469;51.114;13.914;2023-04-07T19:54:22;99058.25;;;5.94;100.00
18678;BME280;9469;51.114;13.914;2023-04-07T19:59:33;99056.41;;;5.89;100.00
18678;BME280;9469;51.114;13.914;2023-04-07T20:04:40;99049.44;;;5.73;100.00
18678;BME280;9469;51.114;13.914;2023-04-07T20:09:48;99064.75;;;5.71;100.00
18678;BME280;9469;51.114;13.914;2023-04-07T20:14:55;99063.16;;;5.65;100.00
18678;BME280;9469;51.114;13.914;2023-04-07T20:20:04;99067.44;;;5.81;100.00
18678;BME280;9469;51.114;13.914;2023-04-07T20:25:09;99059.47;;;5.66;100.00
18678;BME280;9469;51.114;13.914;2023-04-07T20:30:15;99062.78;;;6.33;100.00
18678;BME280;9469;51.114;13.914;2023-04-07T20:35:23;99065.66;;;6.02;100.00
18678;BME280;9469;51.114;13.914;2023-04-07T20:40:30;99059.44;;;5.56;100.00
18678;BME280;9469;51.114;13.914;2023-04-07T20:45:37;99055.78;;;5.77;100.00
18678;BME280;9469;51.114;13.914;2023-04-07T20:50:45;99068.56;;;6.05;100.00
18678;BME280;9469;51.114;13.914;2023-04-07T20:55:50;99058.44;;;5.77;100.00
18678;BME280;9469;51.114;13.914;2023-04-07T21:00:56;99071.00;;;6.22;100.00
18678;BME280;9469;51.114;13.914;2023-04-07T21:06:05;99064.34;;;5.99;100.00
18678;BME280;9469;51.114;13.914;2023-04-07T21:11:12;99066.47;;;6.12;100.00
18678;BME280;9469;51.114;13.914;2023-04-07T21:16:17;99060.88;;;5.89;100.00
18678;BME280;9469;51.114;13.914;2023-04-07T21:21:25;99056.97;;;6.01;100.00
18678;BME280;9469;51.114;13.914;2023-04-07T21:26:30;99048.16;;;5.80;100.00
18678;BME280;9469;51.114;13.914;2023-04-07T21:31:35;99049.81;;;5.92;100.00
18678;BME280;9469;51.114;13.914;2023-04-07T21:36:44;99047.28;;;5.55;100.00
18678;BME280;9469;51.114;13.914;2023-04-07T21:41:51;99049.47;;;5.78;100.00
18678;BME280;9469;51.114;13.914;2023-04-07T21:46:59;99050.28;;;5.78;100.00
18678;BME280;9469;51.114;13.914;2023-04-07T21:52:07;99057.22;;;6.10;100.00
18678;BME280;9469;51.114;13.914;2023-04-07T21:57:12;99056.97;;;6.11;100.00
18678;BME280;9469;51.114;13.914;2023-04-07T22:02:19;99056.31;;;5.69;100.00
18678;BME280;9469;51.114;13.914;2023-04-07T22:07:27;99055.63;;;5.94;100.00
18678;BME280;9469;51.114;13.914;2023-04-07T22:12:32;99059.59;;;6.11;100.00
18678;BME280;9469;51.114;13.914;2023-04-07T22:17:39;99059.59;;;5.96;100.00
18678;BME280;9469;51.114;13.914;2023-04-07T22:22:47;99051.53;;;5.66;100.00
18678;BME280;9469;51.114;13.914;2023-04-07T22:27:52;99047.97;;;5.92;100.00
18678;BME280;9469;51.114;13.914;2023-04-07T22:32:57;99054.78;;;5.83;100.00
18678;BME280;9469;51.114;13.914;2023-04-07T22:38:06;99055.28;;;5.80;100.00
18678;BME280;9469;51.114;13.914;2023-04-07T22:43:11;99051.94;;;6.05;100.00
18678;BME280;9469;51.114;13.914;2023-04-07T22:48:16;99056.25;;;5.59;100.00
18678;BME280;9469;51.114;13.914;2023-04-07T22:53:24;99058.78;;;5.34;100.00
18678;BME280;9469;51.114;13.914;2023-04-07T22:58:30;99058.63;;;5.50;100.00
18678;BME280;9469;51.114;13.914;2023-04-07T23:03:35;99056.66;;;5.26;100.00
18678;BME280;9469;51.114;13.914;2023-04-07T23:08:44;99053.75;;;5.22;100.00
18678;BME280;9469;51.114;13.914;2023-04-07T23:13:49;99053.97;;;5.11;100.00
18678;BME280;9469;51.114;13.914;2023-04-07T23:18:55;99054.31;;;5.34;100.00
18678;BME280;9469;51.114;13.914;2023-04-07T23:24:02;99055.84;;;5.20;100.00
18678;BME280;9469;51.114;13.914;2023-04-07T23:29:08;99060.38;;;5.30;100.00
18678;BME280;9469;51.114;13.914;2023-04-07T23:34:13;99060.34;;;5.25;100.00
18678;BME280;9469;51.114;13.914;2023-04-07T23:39:23;99055.75;;;5.62;100.00
18678;BME280;9469;51.114;13.914;2023-04-07T23:44:29;99043.53;;;5.41;100.00
18678;BME280;9469;51.114;13.914;2023-04-07T23:49:34;99052.53;;;5.45;100.00
18678;BME280;9469;51.114;13.914;2023-04-07T23:54:42;99040.19;;;5.65;100.00
18678;BME280;9469;51.114;13.914;2023-04-07T23:59:47;99050.44;;;5.00;100.00
